sensor_id;sensor_type;location;lat;lon;timestamp;P1;durP1;ratioP1;P2;durP2;ratioP2
58896;SDS011;44677;52.378;10.400;2024-01-30T00:01:02;8.80;;;6.60;;
58896;SDS011;44677;52.378;10.400;2024-01-30T00:03:28;8.10;;;6.50;;
58896;SDS011;44677;52.378;10.400;2024-01-30T00:05:54;9.10;;;6.60;;
58896;SDS011;44677;52.378;10.400;2024-01-30T00:08:20;9.80;;;6.70;;
58896;SDS011;44677;52.378;10.400;2024-01-30T00:10:45;11.00;;;7.00;;
58896;SDS011;44677;52.378;10.400;2024-01-30T00:13:11;9.40;;;6.80;;
58896;SDS011;44677;52.378;10.400;2024-01-30T00:15:36;9.10;;;7.00;;
58896;SDS011;44677;52.378;10.400;2024-01-30T00:18:02;10.80;;;7.50;;
58896;SDS011;44677;52.378;10.400;2024-01-30T00:20:27;11.10;;;7.20;;
58896;SDS011;44677;52.378;10.400;2024-01-30T00:22:53;9.60;;;7.40;;
58896;SDS011;44677;52.378;10.400;2024-01-30T00:25:18;10.00;;;7.20;;
58896;SDS011;44677;52.378;10.400;2024-01-30T00:27:43;10.10;;;7.70;;
58896;SDS011;44677;52.378;10.400;2024-01-30T00:30:09;8.60;;;7.30;;
58896;SDS011;44677;52.378;10.400;2024-01-30T00:32:35;12.60;;;7.20;;
58896;SDS011;44677;52.378;10.400;2024-01-30T00:35:00;11.10;;;7.20;;
58896;SDS011;44677;52.378;10.400;2024-01-30T00:37:26;9.40;;;6.80;;
58896;SDS011;44677;52.378;10.400;2024-01-30T00:39:51;8.40;;;6.70;;
58896;SDS011;44677;52.378;10.400;2024-01-30T00:42:17;10.40;;;7.00;;
58896;SDS011;44677;52.378;10.400;2024-01-30T00:44:42;8.20;;;6.80;;
58896;SDS011;44677;52.378;10.400;2024-01-30T00:47:08;11.10;;;7.10;;
58896;SDS011;44677;52.378;10.400;2024-01-30T00:49:33;10.50;;;7.10;;
58896;SDS011;44677;52.378;10.400;2024-01-30T00:51:59;9.00;;;7.10;;
58896;SDS011;44677;52.378;10.400;2024-01-30T00:54:24;8.00;;;6.70;;
58896;SDS011;44677;52.378;10.400;2024-01-30T00:56:50;10.70;;;7.00;;
58896;SDS011;44677;52.378;10.400;2024-01-30T00:59:15;11.90;;;7.40;;
58896;SDS011;44677;52.378;10.400;2024-01-30T01:01:40;8.80;;;6.50;;
58896;SDS011;44677;52.378;10.400;2024-01-30T01:04:06;9.30;;;6.60;;
58896;SDS011;44677;52.378;10.400;2024-01-30T01:06:32;8.70;;;6.70;;
58896;SDS011;44677;52.378;10.400;2024-01-30T01:08:57;9.80;;;6.80;;
58896;SDS011;44677;52.378;10.400;2024-01-30T01:11:23;8.80;;;6.50;;
58896;SDS011;44677;52.378;10.400;2024-01-30T01:13:48;9.40;;;7.30;;
58896;SDS011;44677;52.378;10.400;2024-01-30T01:16:14;11.20;;;7.00;;
58896;SDS011;44677;52.378;10.400;2024-01-30T01:18:39;14.40;;;7.30;;
58896;SDS011;44677;52.378;10.400;2024-01-30T01:21:05;9.70;;;7.30;;
58896;SDS011;44677;52.378;10.400;2024-01-30T01:23:31;8.00;;;6.60;;
58896;SDS011;44677;52.378;10.400;2024-01-30T01:25:56;10.10;;;7.20;;
58896;SDS011;44677;52.378;10.400;2024-01-30T01:28:21;9.70;;;7.10;;
58896;SDS011;44677;52.378;10.400;2024-01-30T01:30:47;8.40;;;6.90;;
58896;SDS011;44677;52.378;10.400;2024-01-30T01:33:12;11.00;;;6.90;;
58896;SDS011;44677;52.378;10.400;2024-01-30T01:35:39;11.70;;;7.30;;
58896;SDS011;44677;52.378;10.400;2024-01-30T01:38:05;12.00;;;6.80;;
58896;SDS011;44677;52.378;10.400;2024-01-30T01:40:30;9.30;;;6.60;;
58896;SDS011;44677;52.378;10.400;2024-01-30T01:42:56;11.20;;;7.20;;
58896;SDS011;44677;52.378;10.400;2024-01-30T01:45:21;10.20;;;7.10;;
58896;SDS011;44677;52.378;10.400;2024-01-30T01:47:47;10.50;;;7.40;;
58896;SDS011;44677;52.378;10.400;2024-01-30T01:50:15;8.00;;;6.70;;
58896;SDS011;44677;52.378;10.400;2024-01-30T01:52:44;13.70;;;7.70;;
58896;SDS011;44677;52.378;10.400;2024-01-30T01:55:11;12.00;;;7.20;;
58896;SDS011;44677;52.378;10.400;2024-01-30T01:57:37;9.10;;;6.80;;
58896;SDS011;44677;52.378;10.400;2024-01-30T02:00:02;9.60;;;6.80;;
58896;SDS011;44677;52.378;10.400;2024-01-30T02:02:35;10.10;;;7.10;;
58896;SDS011;44677;52.378;10.400;2024-01-30T02:05:01;9.80;;;7.90;;
58896;SDS011;44677;52.378;10.400;2024-01-30T02:07:27;10.40;;;7.10;;
58896;SDS011;44677;52.378;10.400;2024-01-30T02:09:53;10.20;;;7.10;;
58896;SDS011;44677;52.378;10.400;2024-01-30T02:12:19;9.30;;;6.90;;
58896;SDS011;44677;52.378;10.400;2024-01-30T02:14:45;11.40;;;7.80;;
58896;SDS011;44677;52.378;10.400;2024-01-30T02:17:11;12.40;;;8.00;;
58896;SDS011;44677;52.378;10.400;2024-01-30T02:19:37;10.50;;;7.50;;
58896;SDS011;44677;52.378;10.400;2024-01-30T02:22:02;12.10;;;7.60;;
58896;SDS011;44677;52.378;10.400;2024-01-30T02:24:28;7.90;;;7.00;;
58896;SDS011;44677;52.378;10.400;2024-01-30T02:26:54;11.30;;;7.80;;
58896;SDS011;44677;52.378;10.400;2024-01-30T02:29:19;10.20;;;7.30;;
58896;SDS011;44677;52.378;10.400;2024-01-30T02:31:45;10.80;;;7.30;;
58896;SDS011;44677;52.378;10.400;2024-01-30T02:34:11;10.50;;;7.50;;
58896;SDS011;44677;52.378;10.400;2024-01-30T02:36:36;10.40;;;7.10;;
58896;SDS011;44677;52.378;10.400;2024-01-30T02:39:01;10.30;;;7.00;;
58896;SDS011;44677;52.378;10.400;2024-01-30T02:41:27;9.50;;;7.20;;
58896;SDS011;44677;52.378;10.400;2024-01-30T02:43:53;12.30;;;8.40;;
58896;SDS011;44677;52.378;10.400;2024-01-30T02:46:18;9.80;;;7.40;;
58896;SDS011;44677;52.378;10.400;2024-01-30T02:48:44;11.40;;;8.10;;
58896;SDS011;44677;52.378;10.400;2024-01-30T02:51:09;11.40;;;8.10;;
58896;SDS011;44677;52.378;10.400;2024-01-30T02:53:35;9.30;;;6.70;;
58896;SDS011;44677;52.378;10.400;2024-01-30T02:56:02;9.20;;;7.20;;
58896;SDS011;44677;52.378;10.400;2024-01-30T03:00:53;10.80;;;7.10;;
58896;SDS011;44677;52.378;10.400;2024-01-30T03:03:18;13.80;;;7.90;;
58896;SDS011;44677;52.378;10.400;2024-01-30T03:05:44;10.10;;;7.30;;
58896;SDS011;44677;52.378;10.400;2024-01-30T03:08:09;9.60;;;6.90;;
58896;SDS011;44677;52.378;10.400;2024-01-30T03:10:35;9.30;;;7.40;;
58896;SDS011;44677;52.378;10.400;2024-01-30T03:13:00;8.20;;;6.40;;
58896;SDS011;44677;52.378;10.400;2024-01-30T03:15:26;9.80;;;6.90;;
58896;SDS011;44677;52.378;10.400;2024-01-30T03:17:53;11.10;;;7.60;;
58896;SDS011;44677;52.378;10.400;2024-01-30T03:20:18;10.30;;;7.30;;
58896;SDS011;44677;52.378;10.400;2024-01-30T03:22:44;10.40;;;7.50;;
58896;SDS011;44677;52.378;10.400;2024-01-30T03:25:09;11.10;;;7.30;;
58896;SDS011;44677;52.378;10.400;2024-01-30T03:27:35;12.20;;;7.00;;
58896;SDS011;44677;52.378;10.400;2024-01-30T03:30:00;9.70;;;7.60;;
58896;SDS011;44677;52.378;10.400;2024-01-30T03:32:25;9.40;;;6.90;;
58896;SDS011;44677;52.378;10.400;2024-01-30T03:34:51;11.40;;;7.40;;
58896;SDS011;44677;52.378;10.400;2024-01-30T03:37:16;9.50;;;7.20;;
58896;SDS011;44677;52.378;10.400;2024-01-30T03:39:42;9.30;;;7.10;;
58896;SDS011;44677;52.378;10.400;2024-01-30T03:42:07;10.50;;;7.00;;
58896;SDS011;44677;52.378;10.400;2024-01-30T03:44:32;9.40;;;7.10;;
58896;SDS011;44677;52.378;10.400;2024-01-30T03:46:58;11.10;;;7.20;;
58896;SDS011;44677;52.378;10.400;2024-01-30T03:49:23;10.90;;;7.30;;
58896;SDS011;44677;52.378;10.400;2024-01-30T03:51:49;10.30;;;7.50;;
58896;SDS011;44677;52.378;10.400;2024-01-30T03:54:14;8.90;;;7.30;;
58896;SDS011;44677;52.378;10.400;2024-01-30T03:56:40;8.10;;;7.10;;
58896;SDS011;44677;52.378;10.400;2024-01-30T03:59:05;10.90;;;7.30;;
58896;SDS011;44677;52.378;10.400;2024-01-30T04:01:31;13.20;;;7.20;;
58896;SDS011;44677;52.378;10.400;2024-01-30T04:03:56;8.90;;;7.50;;
58896;SDS011;44677;52.378;10.400;2024-01-30T04:06:22;11.70;;;7.40;;
58896;SDS011;44677;52.378;10.400;2024-01-30T04:08:47;10.60;;;7.20;;
58896;SDS011;44677;52.378;10.400;2024-01-30T04:11:13;9.30;;;6.80;;
58896;SDS011;44677;52.378;10.400;2024-01-30T04:13:38;10.60;;;7.20;;
58896;SDS011;44677;52.378;10.400;2024-01-30T04:16:04;10.40;;;7.40;;
58896;SDS011;44677;52.378;10.400;2024-01-30T04:18:29;10.70;;;7.50;;
58896;SDS011;44677;52.378;10.400;2024-01-30T04:20:55;8.10;;;6.90;;
58896;SDS011;44677;52.378;10.400;2024-01-30T04:23:20;9.60;;;6.90;;
58896;SDS011;44677;52.378;10.400;2024-01-30T04:25:46;11.20;;;7.40;;
58896;SDS011;44677;52.378;10.400;2024-01-30T04:28:11;10.60;;;7.10;;
58896;SDS011;44677;52.378;10.400;2024-01-30T04:30:37;10.50;;;7.00;;
58896;SDS011;44677;52.378;10.400;2024-01-30T04:33:03;11.00;;;6.80;;
58896;SDS011;44677;52.378;10.400;2024-01-30T04:35:29;11.50;;;7.60;;
58896;SDS011;44677;52.378;10.400;2024-01-30T04:37:54;9.70;;;7.70;;
58896;SDS011;44677;52.378;10.400;2024-01-30T04:40:22;7.90;;;6.60;;
58896;SDS011;44677;52.378;10.400;2024-01-30T04:42:48;10.70;;;7.50;;
58896;SDS011;44677;52.378;10.400;2024-01-30T04:45:13;10.70;;;7.30;;
58896;SDS011;44677;52.378;10.400;2024-01-30T04:47:39;8.40;;;6.70;;
58896;SDS011;44677;52.378;10.400;2024-01-30T04:50:06;10.10;;;7.10;;
58896;SDS011;44677;52.378;10.400;2024-01-30T04:52:32;9.60;;;6.50;;
58896;SDS011;44677;52.378;10.400;2024-01-30T04:54:57;10.10;;;6.80;;
58896;SDS011;44677;52.378;10.400;2024-01-30T04:57:26;9.70;;;6.90;;
58896;SDS011;44677;52.378;10.400;2024-01-30T04:59:51;11.70;;;7.20;;
58896;SDS011;44677;52.378;10.400;2024-01-30T05:02:16;14.10;;;7.60;;
58896;SDS011;44677;52.378;10.400;2024-01-30T05:04:42;12.40;;;7.40;;
58896;SDS011;44677;52.378;10.400;2024-01-30T05:07:07;9.10;;;6.60;;
58896;SDS011;44677;52.378;10.400;2024-01-30T05:09:33;11.80;;;7.20;;
58896;SDS011;44677;52.378;10.400;2024-01-30T05:11:58;8.90;;;6.90;;
58896;SDS011;44677;52.378;10.400;2024-01-30T05:14:24;11.20;;;7.90;;
58896;SDS011;44677;52.378;10.400;2024-01-30T05:16:49;10.10;;;7.10;;
58896;SDS011;44677;52.378;10.400;2024-01-30T05:19:15;10.30;;;7.60;;
58896;SDS011;44677;52.378;10.400;2024-01-30T05:21:40;12.10;;;7.20;;
58896;SDS011;44677;52.378;10.400;2024-01-30T05:24:06;10.20;;;7.10;;
58896;SDS011;44677;52.378;10.400;2024-01-30T05:26:32;8.80;;;6.80;;
58896;SDS011;44677;52.378;10.400;2024-01-30T05:28:57;9.90;;;7.50;;
58896;SDS011;44677;52.378;10.400;2024-01-30T05:31:23;8.20;;;6.90;;
58896;SDS011;44677;52.378;10.400;2024-01-30T05:33:48;10.10;;;6.90;;
58896;SDS011;44677;52.378;10.400;2024-01-30T05:36:14;9.10;;;6.70;;
58896;SDS011;44677;52.378;10.400;2024-01-30T05:38:39;10.20;;;7.30;;
58896;SDS011;44677;52.378;10.400;2024-01-30T05:41:04;10.40;;;7.20;;
58896;SDS011;44677;52.378;10.400;2024-01-30T05:43:30;11.80;;;8.00;;
58896;SDS011;44677;52.378;10.400;2024-01-30T05:45:55;10.70;;;7.20;;
58896;SDS011;44677;52.378;10.400;2024-01-30T05:48:21;9.50;;;6.60;;
58896;SDS011;44677;52.378;10.400;2024-01-30T05:50:46;9.50;;;6.70;;
58896;SDS011;44677;52.378;10.400;2024-01-30T05:53:12;6.90;;;6.20;;
58896;SDS011;44677;52.378;10.400;2024-01-30T05:55:37;8.70;;;6.40;;
58896;SDS011;44677;52.378;10.400;2024-01-30T05:58:03;11.40;;;6.80;;
58896;SDS011;44677;52.378;10.400;2024-01-30T06:00:29;10.00;;;6.60;;
58896;SDS011;44677;52.378;10.400;2024-01-30T06:02:54;13.80;;;7.10;;
58896;SDS011;44677;52.378;10.400;2024-01-30T06:05:20;11.20;;;6.90;;
58896;SDS011;44677;52.378;10.400;2024-01-30T06:07:45;7.10;;;6.30;;
58896;SDS011;44677;52.378;10.400;2024-01-30T06:10:10;11.10;;;7.00;;
58896;SDS011;44677;52.378;10.400;2024-01-30T06:12:36;8.60;;;6.80;;
58896;SDS011;44677;52.378;10.400;2024-01-30T06:15:01;10.10;;;7.20;;
58896;SDS011;44677;52.378;10.400;2024-01-30T06:17:27;9.50;;;6.80;;
58896;SDS011;44677;52.378;10.400;2024-01-30T06:19:53;9.30;;;6.80;;
58896;SDS011;44677;52.378;10.400;2024-01-30T06:22:18;9.20;;;7.00;;
58896;SDS011;44677;52.378;10.400;2024-01-30T06:24:44;8.70;;;6.70;;
58896;SDS011;44677;52.378;10.400;2024-01-30T06:27:15;11.30;;;6.60;;
58896;SDS011;44677;52.378;10.400;2024-01-30T06:29:40;8.50;;;6.60;;
58896;SDS011;44677;52.378;10.400;2024-01-30T06:32:07;8.30;;;6.30;;
58896;SDS011;44677;52.378;10.400;2024-01-30T06:34:33;10.50;;;6.50;;
58896;SDS011;44677;52.378;10.400;2024-01-30T06:36:58;12.00;;;7.00;;
58896;SDS011;44677;52.378;10.400;2024-01-30T06:39:23;8.90;;;6.80;;
58896;SDS011;44677;52.378;10.400;2024-01-30T06:41:50;10.80;;;6.50;;
58896;SDS011;44677;52.378;10.400;2024-01-30T06:44:15;9.00;;;6.60;;
58896;SDS011;44677;52.378;10.400;2024-01-30T06:46:41;11.20;;;6.80;;
58896;SDS011;44677;52.378;10.400;2024-01-30T06:49:06;8.70;;;6.30;;
58896;SDS011;44677;52.378;10.400;2024-01-30T06:51:31;10.60;;;6.60;;
58896;SDS011;44677;52.378;10.400;2024-01-30T06:53:57;9.50;;;6.50;;
58896;SDS011;44677;52.378;10.400;2024-01-30T06:56:22;9.70;;;6.80;;
58896;SDS011;44677;52.378;10.400;2024-01-30T06:58:48;11.70;;;6.70;;
58896;SDS011;44677;52.378;10.400;2024-01-30T07:01:14;8.60;;;6.90;;
58896;SDS011;44677;52.378;10.400;2024-01-30T07:03:40;10.00;;;6.30;;
58896;SDS011;44677;52.378;10.400;2024-01-30T07:06:05;10.30;;;6.60;;
58896;SDS011;44677;52.378;10.400;2024-01-30T07:08:31;9.90;;;6.60;;
58896;SDS011;44677;52.378;10.400;2024-01-30T07:10:56;8.40;;;6.10;;
58896;SDS011;44677;52.378;10.400;2024-01-30T07:13:21;9.30;;;5.70;;
58896;SDS011;44677;52.378;10.400;2024-01-30T07:15:47;7.90;;;6.60;;
58896;SDS011;44677;52.378;10.400;2024-01-30T07:18:12;9.10;;;6.80;;
58896;SDS011;44677;52.378;10.400;2024-01-30T07:20:39;11.30;;;6.90;;
58896;SDS011;44677;52.378;10.400;2024-01-30T07:23:11;9.60;;;6.70;;
58896;SDS011;44677;52.378;10.400;2024-01-30T07:25:42;8.60;;;6.30;;
58896;SDS011;44677;52.378;10.400;2024-01-30T07:28:10;7.60;;;6.30;;
58896;SDS011;44677;52.378;10.400;2024-01-30T07:30:37;10.40;;;6.70;;
58896;SDS011;44677;52.378;10.400;2024-01-30T07:33:02;7.90;;;6.60;;
58896;SDS011;44677;52.378;10.400;2024-01-30T07:35:27;9.70;;;6.50;;
58896;SDS011;44677;52.378;10.400;2024-01-30T07:37:53;9.30;;;6.70;;
58896;SDS011;44677;52.378;10.400;2024-01-30T07:40:18;8.90;;;6.20;;
58896;SDS011;44677;52.378;10.400;2024-01-30T07:42:44;10.60;;;7.00;;
58896;SDS011;44677;52.378;10.400;2024-01-30T07:45:09;10.40;;;7.20;;
58896;SDS011;44677;52.378;10.400;2024-01-30T07:47:35;11.60;;;7.40;;
58896;SDS011;44677;52.378;10.400;2024-01-30T07:50:00;9.50;;;6.80;;
58896;SDS011;44677;52.378;10.400;2024-01-30T07:52:26;10.00;;;6.70;;
58896;SDS011;44677;52.378;10.400;2024-01-30T07:54:51;9.80;;;6.30;;
58896;SDS011;44677;52.378;10.400;2024-01-30T07:57:17;9.30;;;6.50;;
58896;SDS011;44677;52.378;10.400;2024-01-30T07:59:43;9.90;;;6.90;;
58896;SDS011;44677;52.378;10.400;2024-01-30T08:02:14;10.50;;;6.70;;
58896;SDS011;44677;52.378;10.400;2024-01-30T08:04:40;9.50;;;6.40;;
58896;SDS011;44677;52.378;10.400;2024-01-30T08:07:05;12.60;;;7.20;;
58896;SDS011;44677;52.378;10.400;2024-01-30T08:09:30;10.10;;;6.80;;
58896;SDS011;44677;52.378;10.400;2024-01-30T08:11:56;9.80;;;7.30;;
58896;SDS011;44677;52.378;10.400;2024-01-30T08:14:21;11.90;;;6.90;;
58896;SDS011;44677;52.378;10.400;2024-01-30T08:16:47;8.40;;;6.40;;
58896;SDS011;44677;52.378;10.400;2024-01-30T08:19:12;8.30;;;6.50;;
58896;SDS011;44677;52.378;10.400;2024-01-30T08:21:39;8.20;;;6.70;;
58896;SDS011;44677;52.378;10.400;2024-01-30T08:24:05;10.50;;;5.90;;
58896;SDS011;44677;52.378;10.400;2024-01-30T08:26:33;10.60;;;7.00;;
58896;SDS011;44677;52.378;10.400;2024-01-30T08:29:00;7.90;;;6.50;;
58896;SDS011;44677;52.378;10.400;2024-01-30T08:31:26;10.70;;;7.10;;
58896;SDS011;44677;52.378;10.400;2024-01-30T08:33:52;8.50;;;6.50;;
58896;SDS011;44677;52.378;10.400;2024-01-30T08:36:17;9.70;;;6.20;;
58896;SDS011;44677;52.378;10.400;2024-01-30T08:38:43;8.70;;;6.80;;
58896;SDS011;44677;52.378;10.400;2024-01-30T08:41:08;9.00;;;6.60;;
58896;SDS011;44677;52.378;10.400;2024-01-30T08:43:34;9.40;;;6.90;;
58896;SDS011;44677;52.378;10.400;2024-01-30T08:45:59;8.60;;;6.60;;
58896;SDS011;44677;52.378;10.400;2024-01-30T08:48:25;10.50;;;7.40;;
58896;SDS011;44677;52.378;10.400;2024-01-30T08:50:51;8.90;;;6.90;;
58896;SDS011;44677;52.378;10.400;2024-01-30T08:53:16;11.40;;;6.60;;
58896;SDS011;44677;52.378;10.400;2024-01-30T08:55:42;8.70;;;6.50;;
58896;SDS011;44677;52.378;10.400;2024-01-30T08:58:07;6.80;;;6.10;;
58896;SDS011;44677;52.378;10.400;2024-01-30T09:00:33;8.60;;;6.20;;
58896;SDS011;44677;52.378;10.400;2024-01-30T09:02:58;8.80;;;6.90;;
58896;SDS011;44677;52.378;10.400;2024-01-30T09:05:24;7.70;;;6.20;;
58896;SDS011;44677;52.378;10.400;2024-01-30T09:07:49;8.00;;;6.10;;
58896;SDS011;44677;52.378;10.400;2024-01-30T09:10:14;9.00;;;6.50;;
58896;SDS011;44677;52.378;10.400;2024-01-30T09:12:40;10.50;;;6.50;;
58896;SDS011;44677;52.378;10.400;2024-01-30T09:15:06;9.40;;;6.50;;
58896;SDS011;44677;52.378;10.400;2024-01-30T09:17:32;10.20;;;6.70;;
58896;SDS011;44677;52.378;10.400;2024-01-30T09:19:58;8.90;;;6.00;;
58896;SDS011;44677;52.378;10.400;2024-01-30T09:22:24;7.80;;;6.30;;
58896;SDS011;44677;52.378;10.400;2024-01-30T09:24:49;10.80;;;6.40;;
58896;SDS011;44677;52.378;10.400;2024-01-30T09:27:15;9.10;;;6.70;;
58896;SDS011;44677;52.378;10.400;2024-01-30T09:29:40;9.20;;;6.60;;
58896;SDS011;44677;52.378;10.400;2024-01-30T09:32:05;9.50;;;6.40;;
58896;SDS011;44677;52.378;10.400;2024-01-30T09:34:31;8.70;;;6.70;;
58896;SDS011;44677;52.378;10.400;2024-01-30T09:36:58;7.10;;;6.20;;
58896;SDS011;44677;52.378;10.400;2024-01-30T09:39:25;7.50;;;6.40;;
58896;SDS011;44677;52.378;10.400;2024-01-30T09:41:55;10.80;;;6.60;;
58896;SDS011;44677;52.378;10.400;2024-01-30T09:44:28;10.00;;;6.60;;
58896;SDS011;44677;52.378;10.400;2024-01-30T09:46:54;7.90;;;6.40;;
58896;SDS011;44677;52.378;10.400;2024-01-30T09:49:20;8.70;;;6.60;;
58896;SDS011;44677;52.378;10.400;2024-01-30T09:51:46;11.30;;;6.70;;
58896;SDS011;44677;52.378;10.400;2024-01-30T09:54:13;9.90;;;6.90;;
58896;SDS011;44677;52.378;10.400;2024-01-30T09:56:40;10.10;;;6.50;;
58896;SDS011;44677;52.378;10.400;2024-01-30T09:59:05;8.80;;;6.50;;
58896;SDS011;44677;52.378;10.400;2024-01-30T10:01:31;10.60;;;6.80;;
58896;SDS011;44677;52.378;10.400;2024-01-30T10:03:56;9.90;;;7.80;;
58896;SDS011;44677;52.378;10.400;2024-01-30T10:06:22;9.00;;;6.70;;
58896;SDS011;44677;52.378;10.400;2024-01-30T10:08:49;8.00;;;6.60;;
58896;SDS011;44677;52.378;10.400;2024-01-30T10:11:15;8.30;;;6.30;;
58896;SDS011;44677;52.378;10.400;2024-01-30T10:13:40;8.70;;;6.50;;
58896;SDS011;44677;52.378;10.400;2024-01-30T10:16:06;8.80;;;6.80;;
58896;SDS011;44677;52.378;10.400;2024-01-30T10:18:31;8.20;;;6.50;;
58896;SDS011;44677;52.378;10.400;2024-01-30T10:20:58;9.20;;;7.00;;
58896;SDS011;44677;52.378;10.400;2024-01-30T10:23:24;7.20;;;5.80;;
58896;SDS011;44677;52.378;10.400;2024-01-30T10:25:50;8.40;;;6.90;;
58896;SDS011;44677;52.378;10.400;2024-01-30T10:28:16;8.20;;;6.10;;
58896;SDS011;44677;52.378;10.400;2024-01-30T10:30:42;7.50;;;6.20;;
58896;SDS011;44677;52.378;10.400;2024-01-30T10:33:07;8.70;;;6.50;;
58896;SDS011;44677;52.378;10.400;2024-01-30T10:35:33;10.40;;;6.30;;
58896;SDS011;44677;52.378;10.400;2024-01-30T10:37:58;7.40;;;5.90;;
58896;SDS011;44677;52.378;10.400;2024-01-30T10:40:26;10.40;;;6.80;;
58896;SDS011;44677;52.378;10.400;2024-01-30T10:42:53;8.90;;;6.30;;
58896;SDS011;44677;52.378;10.400;2024-01-30T10:45:20;8.90;;;6.40;;
58896;SDS011;44677;52.378;10.400;2024-01-30T10:50:13;8.70;;;5.80;;
58896;SDS011;44677;52.378;10.400;2024-01-30T10:52:39;10.60;;;6.70;;
58896;SDS011;44677;52.378;10.400;2024-01-30T10:55:07;7.20;;;5.90;;
58896;SDS011;44677;52.378;10.400;2024-01-30T10:57:34;8.80;;;6.40;;
58896;SDS011;44677;52.378;10.400;2024-01-30T11:00:00;8.90;;;6.20;;
58896;SDS011;44677;52.378;10.400;2024-01-30T11:02:30;10.40;;;5.80;;
58896;SDS011;44677;52.378;10.400;2024-01-30T11:04:59;7.90;;;6.30;;
58896;SDS011;44677;52.378;10.400;2024-01-30T11:07:26;7.90;;;6.50;;
58896;SDS011;44677;52.378;10.400;2024-01-30T11:09:53;8.70;;;6.10;;
58896;SDS011;44677;52.378;10.400;2024-01-30T11:12:28;8.10;;;5.90;;
58896;SDS011;44677;52.378;10.400;2024-01-30T11:15:04;9.40;;;6.30;;
58896;SDS011;44677;52.378;10.400;2024-01-30T11:20:21;8.30;;;5.90;;
58896;SDS011;44677;52.378;10.400;2024-01-30T11:22:49;6.40;;;5.70;;
58896;SDS011;44677;52.378;10.400;2024-01-30T11:25:17;9.60;;;6.30;;
58896;SDS011;44677;52.378;10.400;2024-01-30T11:27:43;11.80;;;6.50;;
58896;SDS011;44677;52.378;10.400;2024-01-30T11:30:09;8.70;;;6.10;;
58896;SDS011;44677;52.378;10.400;2024-01-30T11:32:35;8.90;;;6.20;;
58896;SDS011;44677;52.378;10.400;2024-01-30T11:35:04;8.20;;;6.10;;
58896;SDS011;44677;52.378;10.400;2024-01-30T11:37:31;7.90;;;5.80;;
58896;SDS011;44677;52.378;10.400;2024-01-30T11:39:57;8.10;;;6.20;;
58896;SDS011;44677;52.378;10.400;2024-01-30T11:42:23;9.80;;;6.10;;
58896;SDS011;44677;52.378;10.400;2024-01-30T11:44:50;8.40;;;6.30;;
58896;SDS011;44677;52.378;10.400;2024-01-30T11:47:16;11.10;;;6.90;;
58896;SDS011;44677;52.378;10.400;2024-01-30T11:49:41;8.40;;;6.00;;
58896;SDS011;44677;52.378;10.400;2024-01-30T11:52:07;7.70;;;6.10;;
58896;SDS011;44677;52.378;10.400;2024-01-30T11:54:33;6.60;;;5.90;;
58896;SDS011;44677;52.378;10.400;2024-01-30T11:56:59;7.50;;;5.50;;
58896;SDS011;44677;52.378;10.400;2024-01-30T11:59:25;9.10;;;6.50;;
58896;SDS011;44677;52.378;10.400;2024-01-30T12:01:51;7.60;;;5.90;;
58896;SDS011;44677;52.378;10.400;2024-01-30T12:04:17;8.20;;;5.80;;
58896;SDS011;44677;52.378;10.400;2024-01-30T12:06:42;11.10;;;5.90;;
58896;SDS011;44677;52.378;10.400;2024-01-30T12:09:08;10.50;;;6.60;;
58896;SDS011;44677;52.378;10.400;2024-01-30T12:14:10;7.60;;;5.80;;
58896;SDS011;44677;52.378;10.400;2024-01-30T12:16:36;9.40;;;6.10;;
58896;SDS011;44677;52.378;10.400;2024-01-30T12:19:01;7.00;;;5.90;;
58896;SDS011;44677;52.378;10.400;2024-01-30T12:21:27;8.60;;;6.80;;
58896;SDS011;44677;52.378;10.400;2024-01-30T12:23:53;7.80;;;6.20;;
58896;SDS011;44677;52.378;10.400;2024-01-30T12:26:19;8.50;;;5.90;;
58896;SDS011;44677;52.378;10.400;2024-01-30T12:28:48;7.80;;;5.80;;
58896;SDS011;44677;52.378;10.400;2024-01-30T12:31:15;9.40;;;6.20;;
58896;SDS011;44677;52.378;10.400;2024-01-30T12:33:40;8.10;;;5.80;;
58896;SDS011;44677;52.378;10.400;2024-01-30T12:36:05;11.20;;;6.60;;
58896;SDS011;44677;52.378;10.400;2024-01-30T12:38:31;7.50;;;6.00;;
58896;SDS011;44677;52.378;10.400;2024-01-30T12:40:57;8.20;;;5.80;;
58896;SDS011;44677;52.378;10.400;2024-01-30T12:43:26;8.60;;;6.40;;
58896;SDS011;44677;52.378;10.400;2024-01-30T12:45:54;10.60;;;7.00;;
58896;SDS011;44677;52.378;10.400;2024-01-30T12:48:20;9.80;;;6.20;;
58896;SDS011;44677;52.378;10.400;2024-01-30T12:50:45;8.00;;;6.10;;
58896;SDS011;44677;52.378;10.400;2024-01-30T12:53:11;7.80;;;6.00;;
58896;SDS011;44677;52.378;10.400;2024-01-30T12:55:37;8.50;;;6.40;;
58896;SDS011;44677;52.378;10.400;2024-01-30T12:58:03;10.40;;;6.50;;
58896;SDS011;44677;52.378;10.400;2024-01-30T13:00:29;9.10;;;6.50;;
58896;SDS011;44677;52.378;10.400;2024-01-30T13:02:54;8.50;;;6.50;;
58896;SDS011;44677;52.378;10.400;2024-01-30T13:05:19;8.00;;;5.90;;
58896;SDS011;44677;52.378;10.400;2024-01-30T13:07:45;7.70;;;6.00;;
58896;SDS011;44677;52.378;10.400;2024-01-30T13:10:11;7.90;;;5.90;;
58896;SDS011;44677;52.378;10.400;2024-01-30T13:12:36;7.70;;;6.30;;
58896;SDS011;44677;52.378;10.400;2024-01-30T13:17:30;7.60;;;5.90;;
58896;SDS011;44677;52.378;10.400;2024-01-30T13:19:55;8.50;;;6.10;;
58896;SDS011;44677;52.378;10.400;2024-01-30T13:22:21;7.00;;;5.80;;
58896;SDS011;44677;52.378;10.400;2024-01-30T13:24:47;8.70;;;5.70;;
58896;SDS011;44677;52.378;10.400;2024-01-30T13:27:12;6.40;;;5.40;;
58896;SDS011;44677;52.378;10.400;2024-01-30T13:29:38;9.60;;;5.70;;
58896;SDS011;44677;52.378;10.400;2024-01-30T13:32:04;7.30;;;5.80;;
58896;SDS011;44677;52.378;10.400;2024-01-30T13:34:29;8.80;;;6.00;;
58896;SDS011;44677;52.378;10.400;2024-01-30T13:36:54;6.90;;;5.90;;
58896;SDS011;44677;52.378;10.400;2024-01-30T13:39:20;9.70;;;6.20;;
58896;SDS011;44677;52.378;10.400;2024-01-30T13:41:45;9.70;;;6.00;;
58896;SDS011;44677;52.378;10.400;2024-01-30T13:44:11;8.40;;;6.30;;
58896;SDS011;44677;52.378;10.400;2024-01-30T13:46:36;8.80;;;6.50;;
58896;SDS011;44677;52.378;10.400;2024-01-30T13:49:02;8.00;;;6.10;;
58896;SDS011;44677;52.378;10.400;2024-01-30T13:51:27;10.00;;;6.30;;
58896;SDS011;44677;52.378;10.400;2024-01-30T13:53:53;7.30;;;5.90;;
58896;SDS011;44677;52.378;10.400;2024-01-30T13:56:19;9.90;;;6.30;;
58896;SDS011;44677;52.378;10.400;2024-01-30T13:58:45;9.00;;;6.40;;
58896;SDS011;44677;52.378;10.400;2024-01-30T14:01:11;10.50;;;6.30;;
58896;SDS011;44677;52.378;10.400;2024-01-30T14:03:36;8.80;;;6.70;;
58896;SDS011;44677;52.378;10.400;2024-01-30T14:06:02;7.60;;;6.20;;
58896;SDS011;44677;52.378;10.400;2024-01-30T14:08:27;10.30;;;6.80;;
58896;SDS011;44677;52.378;10.400;2024-01-30T14:10:53;11.30;;;7.00;;
58896;SDS011;44677;52.378;10.400;2024-01-30T14:13:20;8.30;;;6.40;;
58896;SDS011;44677;52.378;10.400;2024-01-30T14:15:46;8.70;;;6.40;;
58896;SDS011;44677;52.378;10.400;2024-01-30T14:18:11;7.10;;;6.30;;
58896;SDS011;44677;52.378;10.400;2024-01-30T14:20:37;8.80;;;5.90;;
58896;SDS011;44677;52.378;10.400;2024-01-30T14:23:02;9.70;;;6.50;;
58896;SDS011;44677;52.378;10.400;2024-01-30T14:25:28;7.80;;;6.40;;
58896;SDS011;44677;52.378;10.400;2024-01-30T14:27:53;9.00;;;6.30;;
58896;SDS011;44677;52.378;10.400;2024-01-30T14:30:18;8.90;;;6.20;;
58896;SDS011;44677;52.378;10.400;2024-01-30T14:32:44;10.80;;;6.90;;